Latest Weather Observations for Truscott

IDW60801

Issued at 7:43 am WST Saturday 10 December 2022 (issued every 10 minutes, with the page automatically refreshed every 10 minutes)

About weather observations | Map of weather stations | Latest weather observations for WA | Other Formats
Station Details ID: 001020 Name: TRUSCOTT Lat: -14.09 Lon: 126.39 Height: 51.0 m
Data from the previous 72 hours. | See also: Recent months at Truscott
Date/Time
WST
Temp
°C
App
Temp
°C
Dew
Point
°C
Rel
Hum
%
Delta-T
°C
Wind Press
QNH
hPa
Press
MSL
hPa
Rain since
9am
mm
Dir  Spd
km/h
Gust
km/h
Spd
kts
Gust
kts
10/07:30am 30.0 34.2 23.2 67 4.7 SW 6 9 3 5 1008.2 1007.8 1.6
10/07:00am 29.1 33.2 23.3 71 4.0 SSE 7 11 4 6 1008.6 1008.2 1.6
10/06:30am 28.0 33.4 26.0 89 1.4 SE 9 15 5 8 1008.7 1008.3 1.6
10/06:00am 27.5 34.9 27.5 100 0.0 SE 4 9 2 5 1008.2 1007.8 1.4
10/05:44am 27.4 34.1 27.4 100 0.0 SE 7 9 4 5 1007.9 1007.5 1.4
10/05:30am 27.5 33.2 27.5 100 0.0 S 13 20 7 11 1007.3 1006.9 1.4
10/05:29am 27.6 33.3 27.6 100 0.0 S 13 20 7 11 1007.1 1006.7 1.4
10/05:00am 28.2 35.3 28.0 99 0.1 WNW 7 11 4 6 1006.8 1006.4 0.0
10/04:30am 27.8 35.5 27.5 98 0.2 WNW 2 6 1 3 1006.4 1006.0 0.0
10/04:00am 27.9 34.7 27.2 96 0.5 W 6 7 3 4 1005.8 1005.4 0.0
10/03:30am 28.2 35.1 26.8 92 1.0 W 4 7 2 4 1005.6 1005.2 0.0
10/03:00am 28.7 34.9 26.3 87 1.7 W 6 9 3 5 1005.6 1005.2 0.0
10/02:30am 28.8 34.1 25.8 84 2.1 W 9 13 5 7 1005.5 1005.1 0.0
10/02:00am 28.9 33.6 24.9 79 2.8 WSW 9 11 5 6 1005.4 1005.0 0.0
10/01:30am 29.3 33.7 24.4 75 3.4 WSW 9 11 5 6 1005.7 1005.3 0.0
10/01:00am 29.2 32.9 24.5 76 3.3 WSW 13 17 7 9 1005.4 1005.0 0.0
10/12:30am 29.3 33.7 25.1 78 3.0 W 11 17 6 9 1005.9 1005.5 0.0
10/12:00am 29.2 33.3 25.2 79 2.8 WSW 13 20 7 11 1006.4 1006.0 0.0
 
Date/Time
WST
Temp
°C
App
Temp
°C
Dew
Point
°C
Rel
Hum
%
Delta-T
°C
Wind Press
QNH
hPa
Press
MSL
hPa
Rain since
9am
mm
Dir  Spd
km/h
Gust
km/h
Spd
kts
Gust
kts
09/11:30pm 29.0 33.6 25.4 81 2.5 S 11 17 6 9 1007.4 1007.0 0.0
09/11:00pm 29.1 33.3 25.3 80 2.7 WNW 13 20 7 11 1006.5 1006.1 0.0
09/10:30pm 29.2 33.9 25.6 81 2.5 WNW 11 19 6 10 1006.7 1006.3 0.0
09/10:00pm 29.2 34.1 25.8 82 2.4 WNW 11 15 6 8 1006.8 1006.4 0.0
09/09:30pm 29.2 33.2 25.6 81 2.5 WNW 15 20 8 11 1006.6 1006.2 0.0
09/09:00pm 29.5 34.3 25.7 80 2.7 WNW 11 15 6 8 1006.8 1006.4 0.0
09/08:30pm 29.6 33.4 24.7 75 3.4 WNW 13 20 7 11 1006.6 1006.2 0.0
09/08:00pm 29.8 32.8 23.3 68 4.5 WNW 13 19 7 10 1006.2 1005.8 0.0
09/07:30pm 30.0 33.1 22.9 65 4.9 W 11 15 6 8 1006.2 1005.8 0.0
09/07:00pm 30.4 33.0 22.6 63 5.3 W 13 19 7 10 1005.9 1005.5 0.0
09/06:30pm 30.7 32.9 21.2 57 6.4 WNW 11 17 6 9 1005.4 1005.0 0.0
09/06:00pm 31.3 32.8 20.6 53 7.2 WNW 13 22 7 12 1004.9 1004.5 0.0
09/05:30pm 31.9 33.1 19.9 49 7.9 W 13 22 7 12 1004.6 1004.2 0.0
09/05:00pm 32.5 33.3 21.7 53 7.3 WNW 20 32 11 17 1004.4 1004.0 0.0
09/04:30pm 33.1 34.0 21.6 51 7.8 WNW 19 26 10 14 1004.3 1003.9 0.0
09/04:00pm 32.8 35.4 24.0 60 6.2 WNW 17 28 9 15 1003.8 1003.4 0.0
09/03:30pm 33.5 36.4 24.4 59 6.4 WNW 17 26 9 14 1003.9 1003.5 0.0
09/03:00pm 34.0 35.7 23.4 54 7.4 WNW 20 28 11 15 1004.0 1003.7 0.0
09/02:30pm 34.0 35.5 23.1 53 7.6 WNW 20 30 11 16 1004.4 1004.0 0.0
09/02:00pm 34.3 36.7 23.6 53 7.5 NW 17 26 9 14 1004.8 1004.4 0.0
09/01:30pm 35.4 35.9 20.1 40 10.2 WNW 17 24 9 13 1005.0 1004.6 0.0
09/01:00pm 35.2 35.5 20.3 41 10.0 WNW 19 26 10 14 1005.4 1005.0 0.0
09/12:30pm 35.2 34.7 19.1 38 10.6 WNW 20 32 11 17 1005.9 1005.5 0.0
09/12:00pm 34.8 34.7 20.0 42 9.9 WNW 20 28 11 15 1006.3 1005.9 0.0
09/11:30am 34.2 35.0 21.3 47 8.7 WNW 19 26 10 14 1006.6 1006.2 0.0
09/11:00am 34.0 34.8 20.7 45 9.0 WNW 17 26 9 14 1007.1 1006.7 0.0
09/10:30am 33.4 36.8 24.6 60 6.2 WNW 15 24 8 13 1007.5 1007.1 0.0
09/10:00am 34.0 38.1 24.6 58 6.6 WSW 11 19 6 10 1008.0 1007.6 0.0
09/09:30am 33.5 36.6 24.1 58 6.6 SW 15 20 8 11 1008.3 1007.9 0.0
09/09:00am 32.9 36.4 24.9 63 5.7 SW 15 24 8 13 1008.2 1007.8 0.0
09/08:30am 32.0 35.6 25.6 69 4.6 SW 17 28 9 15 1008.4 1008.0 0.0
09/08:00am 31.2 34.6 25.3 71 4.2 WSW 17 24 9 13 1008.4 1008.0 0.0
09/07:30am 30.8 35.5 26.1 76 3.4 WSW 13 20 7 11 1008.3 1007.9 0.0
09/07:00am 29.9 35.2 26.5 82 2.4 WNW 11 15 6 8 1008.3 1007.9 0.0
09/06:30am 29.7 35.7 26.9 85 2.0 W 9 15 5 8 1008.2 1007.8 0.0
09/06:00am 28.7 35.3 27.3 92 1.0 W 7 9 4 5 1008.1 1007.7 0.0
09/05:30am 27.4 34.3 27.4 100 0.0 W 6 7 3 4 1007.9 1007.5 0.0
09/05:00am 27.4 34.0 27.2 99 0.1 W 7 9 4 5 1007.5 1007.1 0.0
09/04:30am 26.9 33.5 26.9 100 0.0 WNW 6 7 3 4 1007.2 1006.8 0.0
09/04:00am 27.3 33.8 26.8 97 0.4 WSW 6 7 3 4 1007.0 1006.6 0.0
09/03:30am 27.0 33.5 26.8 99 0.1 W 6 7 3 4 1006.8 1006.4 0.0
09/03:00am 27.6 33.3 26.4 93 0.9 W 9 11 5 6 1006.5 1006.1 0.0
09/02:30am 27.7 33.3 26.3 92 1.0 W 9 11 5 6 1006.3 1005.9 0.0
09/02:00am 27.6 33.9 26.5 94 0.8 WSW 6 9 3 5 1006.3 1005.9 0.0
09/01:30am 27.7 33.5 26.1 91 1.1 W 7 9 4 5 1006.4 1006.0 0.0
09/01:00am 27.9 33.4 26.1 90 1.3 W 9 11 5 6 1006.5 1006.1 0.0
09/12:30am 27.9 34.0 26.5 92 1.0 W 7 11 4 6 1007.0 1006.6 0.0
09/12:00am 27.9 33.9 26.3 91 1.1 W 7 11 4 6 1007.3 1006.9 0.0
 
Date/Time
WST
Temp
°C
App
Temp
°C
Dew
Point
°C
Rel
Hum
%
Delta-T
°C
Wind Press
QNH
hPa
Press
MSL
hPa
Rain since
9am
mm
Dir  Spd
km/h
Gust
km/h
Spd
kts
Gust
kts
08/11:30pm 27.9 33.7 26.1 90 1.3 W 7 11 4 6 1007.6 1007.2 0.0
08/11:00pm 28.0 33.8 26.0 89 1.4 W 7 9 4 5 1007.9 1007.5 0.0
08/10:30pm 28.0 34.0 26.0 89 1.4 WNW 6 9 3 5 1008.0 1007.6 0.0
08/10:00pm 27.9 33.4 26.1 90 1.3 NW 9 13 5 7 1008.1 1007.7 0.0
08/09:30pm 27.9 33.6 25.9 89 1.4 NW 7 9 4 5 1008.2 1007.8 0.0
08/09:00pm 28.0 33.6 25.8 88 1.6 NW 7 9 4 5 1008.0 1007.6 0.0
08/08:30pm 28.3 33.7 25.5 85 2.0 WNW 7 11 4 6 1007.9 1007.5 0.0
08/08:00pm 28.3 33.9 25.5 85 2.0 NW 6 7 3 4 1007.9 1007.5 0.0
08/07:30pm 28.5 34.3 25.7 85 2.0 NW 6 9 3 5 1007.5 1007.1 0.0
08/07:00pm 28.8 34.2 25.2 81 2.5 NNW 6 9 3 5 1007.2 1006.8 0.0
08/06:30pm 29.1 34.0 24.7 77 3.1 NNW 7 9 4 5 1006.8 1006.4 0.0
08/06:00pm 29.6 34.2 24.7 75 3.4 NW 9 15 5 8 1006.3 1005.9 0.0
08/05:30pm 30.6 35.0 24.5 70 4.3 NNW 9 17 5 9 1005.8 1005.4 0.0
08/05:00pm 31.7 34.8 23.5 62 5.7 NW 13 19 7 10 1005.5 1005.1 0.0
08/04:30pm 32.3 34.2 22.1 55 7.0 NW 15 20 8 11 1005.2 1004.8 0.0
08/04:00pm 32.7 35.0 22.8 56 6.8 WNW 15 20 8 11 1005.1 1004.7 0.0
08/03:30pm 32.6 35.5 23.8 59 6.1 NW 15 20 8 11 1005.1 1004.7 0.0
08/03:00pm 32.2 34.6 23.7 61 5.9 NW 17 22 9 12 1005.4 1005.0 0.0
08/02:30pm 32.5 35.1 24.0 61 5.9 NW 17 22 9 12 1005.6 1005.2 0.0
08/02:00pm 32.3 35.0 23.5 59 6.1 NNW 15 22 8 12 1005.9 1005.5 0.0
08/01:30pm 32.0 34.8 24.3 63 5.4 NNW 17 28 9 15 1006.2 1005.8 0.0
08/01:00pm 32.1 35.0 24.4 63 5.4 N 17 26 9 14 1006.7 1006.3 0.0
08/12:30pm 32.6 36.1 25.4 66 5.1 NNW 17 26 9 14 1006.9 1006.5 0.0
08/12:00pm 32.4 35.6 24.4 62 5.6 NW 15 22 8 12 1007.3 1006.9 0.0
08/11:30am 32.7 35.5 23.6 58 6.3 WNW 15 20 8 11 1007.6 1007.2 0.0
08/11:00am 32.8 34.8 22.3 54 7.2 WNW 15 22 8 12 1008.0 1007.6 0.0
08/10:30am 33.2 34.7 19.7 45 8.9 WNW 11 17 6 9 1008.4 1008.0 0.0
08/10:00am 32.7 34.3 21.5 51 7.6 WNW 15 20 8 11 1008.5 1008.1 0.0
08/09:30am 32.5 36.0 22.9 57 6.6 W 9 15 5 8 1008.8 1008.4 0.0
08/09:00am 31.4 35.0 23.8 64 5.3 WNW 11 19 6 10 1009.2 1008.8 0.0
08/08:30am 31.4 35.3 24.3 66 5.0 WSW 11 15 6 8 1009.3 1008.9 0.0
08/08:00am 30.6 34.6 23.8 67 4.7 WSW 9 13 5 7 1009.4 1009.0 0.0
08/07:30am 30.2 35.1 25.3 75 3.5 WSW 9 15 5 8 1009.4 1009.0 0.0
08/07:00am 29.5 34.4 25.3 78 3.0 WNW 9 17 5 9 1009.3 1008.9 0.0
08/06:30am 29.1 34.2 25.5 81 2.5 NW 9 13 5 7 1009.2 1008.8 0.0
08/06:00am 28.4 35.2 26.2 88 1.6 WNW 2 7 1 4 1009.0 1008.6 0.0
08/05:30am 27.1 33.1 26.0 94 0.8 NNW 6 9 3 5 1008.5 1008.1 0.0
08/05:00am 26.7 33.2 26.2 97 0.4 WNW 4 7 2 4 1008.0 1007.6 0.0
08/04:30am 27.1 33.1 26.4 96 0.5 NW 7 9 4 5 1007.4 1007.0 0.0
08/04:00am 27.1 33.5 26.9 99 0.1 WNW 7 9 4 5 1007.2 1006.8 0.0
08/03:30am 26.7 33.9 26.7 100 0.0 W 2 7 1 4 1007.0 1006.6 0.0
08/03:00am 27.3 35.3 27.3 100 0.0 CALM 0 0 0 0 1006.9 1006.5 0.0
08/02:30am 27.1 33.8 27.1 100 0.0 WNW 6 7 3 4 1006.7 1006.3 0.0
08/02:00am 27.2 33.8 26.9 98 0.2 NW 6 7 3 4 1006.8 1006.4 0.0
08/01:30am 26.6 33.0 26.6 100 0.0 NW 6 7 3 4 1006.7 1006.3 0.0
08/01:00am 26.8 34.1 26.8 100 0.0 NW 2 7 1 4 1006.7 1006.3 0.0
08/12:30am 26.7 34.3 26.7 100 0.0 CALM 0 0 0 0 1006.9 1006.5 0.0
08/12:20am 26.7 34.3 26.7 100 0.0 CALM 0 0 0 0 1006.9 1006.5 0.0
08/12:01am 26.6 34.1 26.6 100 0.0 CALM 0 0 0 0 1007.2 1006.8 0.0
08/12:00am 26.7 34.3 26.7 100 0.0 CALM 0 0 0 0 1007.2 1006.8 0.0
 
Date/Time
WST
Temp
°C
App
Temp
°C
Dew
Point
°C
Rel
Hum
%
Delta-T
°C
Wind Press
QNH
hPa
Press
MSL
hPa
Rain since
9am
mm
Dir  Spd
km/h
Gust
km/h
Spd
kts
Gust
kts
07/11:30pm 26.7 33.5 26.7 100 0.0 WNW 4 7 2 4 1007.5 1007.1 0.0
07/11:00pm 26.4 32.6 26.4 100 0.0 NNW 6 7 3 4 1007.6 1007.2 0.0
07/10:30pm 26.5 33.9 26.5 100 0.0 CALM 0 0 0 0 1008.0 1007.6 0.0
07/10:00pm 26.5 33.9 26.5 100 0.0 CALM 0 0 0 0 1007.8 1007.4 0.0
07/09:30pm 26.9 34.6 26.9 100 0.0 CALM 0 0 0 0 1007.6 1007.2 0.0
07/09:00pm 27.3 34.9 27.3 100 0.0 W 2 7 1 4 1007.5 1007.1 0.0
07/08:30pm 27.3 35.3 27.3 100 0.0 CALM 0 0 0 0 1007.5 1007.1 0.0
07/08:00pm 27.7 35.7 27.4 98 0.2 CALM 0 0 0 0 1007.5 1007.1 0.0
07/07:30pm 27.8 34.9 26.6 93 0.9 NNW 2 6 1 3 1007.2 1006.8 0.0
07/07:00pm 28.3 34.2 25.9 87 1.7 NW 6 6 3 3 1006.8 1006.4 0.0
07/06:30pm 29.0 35.0 26.4 86 1.9 NW 7 9 4 5 1006.5 1006.1 0.0
07/06:00pm 29.2 35.0 26.0 83 2.3 NNW 7 9 4 5 1006.3 1005.9 0.0
07/05:30pm 29.8 35.1 25.8 79 2.8 NNW 9 15 5 8 1006.2 1005.8 0.0
07/05:00pm 30.3 35.2 25.8 77 3.2 NNW 11 15 6 8 1006.0 1005.6 0.0
07/04:30pm 30.6 35.7 26.1 77 3.2 NW 11 17 6 9 1006.0 1005.6 0.0
07/04:00pm 30.4 35.3 25.9 77 3.2 NNW 11 17 6 9 1005.5 1005.1 0.0
07/03:30pm 30.9 35.5 25.9 74 3.6 NNW 13 20 7 11 1005.3 1004.9 0.0
07/03:00pm 31.4 35.0 25.0 69 4.5 NNW 15 24 8 13 1005.6 1005.2 0.0
07/02:30pm 31.9 36.0 25.2 67 4.7 NNW 13 20 7 11 1005.6 1005.2 0.0
07/02:00pm 32.3 36.5 25.4 67 4.9 NNW 13 20 7 11 1005.7 1005.3 0.0
07/01:30pm 32.8 37.2 25.6 66 5.1 NNW 13 19 7 10 1006.0 1005.6 0.0
07/01:00pm 32.6 36.2 23.8 59 6.1 NW 11 17 6 9 1006.5 1006.1 0.0
07/12:30pm 32.5 36.7 24.8 64 5.4 NNW 11 19 6 10 1007.0 1006.6 0.0
07/12:00pm 32.3 36.2 24.3 62 5.6 NNW 11 19 6 10 1007.3 1006.9 0.0
07/11:30am 32.1 36.7 25.9 70 4.4 N 13 20 7 11 1007.7 1007.3 0.0
07/11:00am 31.4 34.7 24.5 67 4.8 N 15 20 8 11 1008.2 1007.8 0.0
07/10:30am 32.2 36.6 25.0 65 5.1 N 11 19 6 10 1008.4 1008.0 0.0
07/10:00am 32.0 37.0 24.8 65 5.1 NNW 7 11 4 6 1008.6 1008.2 0.0
07/09:30am 31.4 37.0 25.5 71 4.2 NNW 6 9 3 5 1009.0 1008.6 0.0
07/09:00am 30.8 35.5 24.9 71 4.2 N 9 13 5 7 1009.1 1008.7 21.4
07/08:30am 30.7 36.3 25.5 74 3.7 NNW 6 11 3 6 1009.0 1008.6 21.4
07/08:00am 30.1 35.5 25.2 75 3.5 NNW 6 9 3 5 1009.0 1008.6 21.4

Other formats

Comma delimited format used in spreadsheet applications
http://www.bom.gov.au/fwo/IDW60801/IDW60801.95101.axf

JavaScript Object Notation format (JSON) in row-major order
http://www.bom.gov.au/fwo/IDW60801/IDW60801.95101.json

Data quality

Most of these data are generated automatically and are frequently updated. Quality checks on data are not normally performed. It is possible for incorrect values to appear. Refer to information at About Latest Weather Observations and please check the disclaimer before using these data.